Time;durP1;ratioP1;P1;durP2;ratioP2;P2;SDS_P1;SDS_P2;PMS_P1;PMS_P2;Temp;Humidity;BMP_temperature;BMP_pressure;BME280_temperature;BME280_humidity;BME280_pressure;Samples;Min_cycle;Max_cycle;Signal;HPM_P1;HPM_P2
2021/10/14 00:00:54;;;;;;;3.95;3.58;;;11.00;99.90;;;;;;4996550;28;20029;-76
2021/10/14 00:03:20;;;;;;;6.32;3.80;;;11.00;99.90;;;;;;4994982;28;20038;-77
2021/10/14 00:05:46;;;;;;;3.65;3.35;;;11.00;99.90;;;;;;4977275;28;20030;-76
2021/10/14 00:08:12;;;;;;;5.72;3.90;;;11.00;99.90;;;;;;4977261;28;20038;-77
2021/10/14 00:10:38;;;;;;;4.30;3.35;;;11.00;99.90;;;;;;4994749;28;20038;-76
2021/10/14 00:13:04;;;;;;;4.60;3.58;;;11.00;99.90;;;;;;4994723;28;20034;-77
2021/10/14 00:15:31;;;;;;;3.63;3.20;;;10.90;99.90;;;;;;4994597;28;20053;-77
2021/10/14 00:17:58;;;;;;;4.45;3.20;;;10.90;99.90;;;;;;4994361;28;20034;-76
2021/10/14 00:20:24;;;;;;;2.83;2.63;;;10.80;99.90;;;;;;4994694;28;20026;-77
2021/10/14 00:22:49;;;;;;;4.68;2.47;;;10.80;99.90;;;;;;4994434;28;20037;-76
2021/10/14 00:25:18;;;;;;;2.53;2.38;;;10.70;99.90;;;;;;4994509;28;20081;-77
2021/10/14 00:27:43;;;;;;;2.67;2.47;;;10.60;99.90;;;;;;4994376;28;20481;-76
2021/10/14 00:30:10;;;;;;;4.03;2.83;;;10.70;99.90;;;;;;4974341;28;20063;-76
2021/10/14 00:32:35;;;;;;;6.32;2.90;;;10.70;99.90;;;;;;4973813;28;20133;-77
2021/10/14 00:35:01;;;;;;;2.50;2.30;;;10.70;99.90;;;;;;4989653;28;20496;-77
2021/10/14 00:37:27;;;;;;;2.20;2.00;;;10.70;99.90;;;;;;4994082;28;20108;-77
2021/10/14 00:39:52;;;;;;;2.80;2.50;;;10.70;99.90;;;;;;4994278;28;20037;-77
2021/10/14 00:42:18;;;;;;;2.47;1.80;;;10.70;99.90;;;;;;4968758;28;20621;-77
2021/10/14 00:44:52;;;;;;;2.75;2.20;;;10.60;99.90;;;;;;4974162;28;20035;-77
2021/10/14 00:47:25;;;;;;;1.90;1.80;;;10.60;99.90;;;;;;4983602;28;20034;-77
2021/10/14 00:49:52;;;;;;;2.42;2.22;;;10.60;99.90;;;;;;4964653;28;20051;-76
2021/10/14 00:52:18;;;;;;;2.53;2.05;;;10.50;99.90;;;;;;4974314;28;20035;-78
2021/10/14 00:54:46;;;;;;;2.03;1.92;;;10.60;99.90;;;;;;4974612;28;20113;-76
2021/10/14 00:57:13;;;;;;;2.30;2.00;;;10.50;99.90;;;;;;4973998;28;20073;-77
2021/10/14 00:59:40;;;;;;;1.92;1.73;;;10.50;99.90;;;;;;4974391;28;20051;-77
2021/10/14 01:02:07;;;;;;;1.75;1.60;;;10.40;99.90;;;;;;4974518;28;20034;-76
2021/10/14 01:04:33;;;;;;;2.00;1.88;;;10.40;99.70;;;;;;4975874;28;20057;-77
2021/10/14 01:06:59;;;;;;;1.83;1.73;;;10.40;99.90;;;;;;4993002;28;20089;-77
2021/10/14 01:09:25;;;;;;;1.83;1.73;;;10.30;99.90;;;;;;4993871;28;20521;-77
2021/10/14 01:11:51;;;;;;;3.35;1.67;;;10.30;99.90;;;;;;4993738;28;20049;-76
2021/10/14 01:14:17;;;;;;;1.63;1.52;;;10.30;99.50;;;;;;4992505;28;20479;-77
2021/10/14 01:16:46;;;;;;;2.63;1.88;;;10.30;99.00;;;;;;4992384;28;20448;-77
2021/10/14 01:19:14;;;;;;;1.10;1.10;;;10.30;99.40;;;;;;4993675;28;20029;-77
2021/10/14 01:21:40;;;;;;;1.23;1.13;;;10.30;99.50;;;;;;4993692;28;20030;-77
2021/10/14 01:24:07;;;;;;;1.67;1.35;;;10.20;99.20;;;;;;4993528;28;20057;-77
2021/10/14 01:26:33;;;;;;;4.00;1.17;;;10.10;99.60;;;;;;4992481;28;20022;-77
2021/10/14 01:28:59;;;;;;;1.20;0.90;;;10.00;99.00;;;;;;4993455;28;20105;-76
2021/10/14 01:31:27;;;;;;;1.10;1.05;;;10.00;98.50;;;;;;4993504;28;20533;-77
2021/10/14 01:33:53;;;;;;;0.88;0.88;;;10.00;97.50;;;;;;4989685;28;20030;-77
2021/10/14 01:36:19;;;;;;;1.13;0.80;;;10.00;97.00;;;;;;4975742;28;20487;-76
2021/10/14 01:38:45;;;;;;;0.77;0.77;;;10.10;96.40;;;;;;4993241;28;20050;-77
2021/10/14 01:41:12;;;;;;;0.73;0.73;;;10.10;96.60;;;;;;4993484;28;20026;-77
2021/10/14 01:43:38;;;;;;;5.10;1.42;;;10.20;95.90;;;;;;4993576;28;20084;-76
2021/10/14 01:46:04;;;;;;;0.80;0.80;;;10.20;95.00;;;;;;4993525;28;20057;-77
2021/10/14 01:48:30;;;;;;;0.90;0.90;;;10.20;95.70;;;;;;4993391;28;20098;-77
2021/10/14 01:50:57;;;;;;;0.93;0.90;;;10.20;96.00;;;;;;4993350;28;20054;-77
2021/10/14 01:53:23;;;;;;;1.20;1.20;;;10.10;96.70;;;;;;4993439;28;20485;-77
2021/10/14 01:55:50;;;;;;;1.15;1.08;;;10.20;97.40;;;;;;4993450;28;20045;-77
2021/10/14 01:58:15;;;;;;;1.20;1.10;;;10.20;98.10;;;;;;4993194;28;20093;-77
2021/10/14 02:00:41;;;;;;;1.70;1.20;;;10.20;98.10;;;;;;4993395;28;20030;-77
2021/10/14 02:03:08;;;;;;;0.90;0.90;;;10.20;97.50;;;;;;4993566;28;20022;-77
2021/10/14 02:05:33;;;;;;;0.95;0.90;;;10.30;96.80;;;;;;4993124;28;20030;-77
2021/10/14 02:08:00;;;;;;;0.68;0.68;;;10.20;96.50;;;;;;4993245;28;20031;-77
2021/10/14 02:10:26;;;;;;;0.80;0.80;;;10.20;96.60;;;;;;4991989;28;20053;-77
2021/10/14 02:12:52;;;;;;;0.80;0.80;;;10.20;96.30;;;;;;4993232;28;20026;-77
2021/10/14 02:15:18;;;;;;;0.80;0.80;;;10.20;96.30;;;;;;4993282;28;20023;-77
2021/10/14 02:17:44;;;;;;;1.00;0.90;;;10.20;96.30;;;;;;4992122;28;20117;-77
2021/10/14 02:20:10;;;;;;;0.63;0.63;;;10.30;96.50;;;;;;4996718;28;20101;-77
2021/10/14 02:22:36;;;;;;;3.33;0.95;;;10.20;96.70;;;;;;4995635;28;20030;-76
2021/10/14 02:25:04;;;;;;;1.52;0.93;;;10.20;96.90;;;;;;4996605;28;20046;-76
2021/10/14 02:27:30;;;;;;;1.15;0.90;;;10.20;96.90;;;;;;4996544;28;20030;-77
2021/10/14 02:29:55;;;;;;;0.85;0.85;;;10.10;97.10;;;;;;4996468;28;20030;-77
2021/10/14 02:32:33;;;;;;;1.10;1.08;;;10.10;97.30;;;;;;4995205;28;20045;-77
2021/10/14 02:35:15;;;;;;;0.93;0.90;;;10.10;97.60;;;;;;4992572;28;20182;-76
2021/10/14 02:37:41;;;;;;;0.80;0.80;;;10.10;97.80;;;;;;4995406;28;20042;-76
2021/10/14 02:40:08;;;;;;;1.10;1.08;;;10.00;98.20;;;;;;4996459;28;20027;-77
2021/10/14 02:42:34;;;;;;;0.85;0.82;;;9.90;98.40;;;;;;5014744;28;20438;-76
2021/10/14 02:45:00;;;;;;;0.80;0.80;;;9.80;98.10;;;;;;5015691;28;20038;-76
2021/10/14 02:47:26;;;;;;;1.00;0.90;;;9.80;98.40;;;;;;5015499;28;20113;-76
2021/10/14 02:49:51;;;;;;;1.40;1.30;;;9.80;98.60;;;;;;5015358;28;20105;-76
2021/10/14 02:52:17;;;;;;;0.90;0.90;;;9.80;99.00;;;;;;4997814;28;20080;-76
2021/10/14 02:54:43;;;;;;;0.82;0.82;;;9.70;99.00;;;;;;5015636;28;20040;-76
2021/10/14 02:57:09;;;;;;;1.02;0.90;;;9.50;99.10;;;;;;5015289;28;20109;-76
2021/10/14 02:59:35;;;;;;;1.05;0.95;;;9.40;99.30;;;;;;5015378;28;20037;-76
2021/10/14 03:02:00;;;;;;;1.10;1.05;;;9.40;99.50;;;;;;5015523;28;20026;-76
2021/10/14 03:04:26;;;;;;;1.73;1.23;;;9.40;99.60;;;;;;5015405;28;20538;-76
2021/10/14 03:06:52;;;;;;;1.00;1.00;;;9.40;99.80;;;;;;4997049;28;20030;-76
2021/10/14 03:09:18;;;;;;;1.50;1.40;;;9.40;99.70;;;;;;4996303;28;20057;-75
2021/10/14 03:11:43;;;;;;;1.20;0.88;;;9.30;99.70;;;;;;4997394;28;20582;-76
2021/10/14 03:14:09;;;;;;;1.02;1.02;;;9.30;99.90;;;;;;5015036;28;20029;-76
2021/10/14 03:16:35;;;;;;;0.88;0.88;;;9.30;99.90;;;;;;5015086;28;20038;-76
2021/10/14 03:19:01;;;;;;;1.10;1.05;;;9.40;99.90;;;;;;5015066;28;20507;-76
2021/10/14 03:21:26;;;;;;;1.02;1.02;;;9.40;99.80;;;;;;4997607;28;20395;-76
2021/10/14 03:23:52;;;;;;;0.80;0.80;;;9.40;99.80;;;;;;5014109;28;20053;-76
2021/10/14 03:26:18;;;;;;;2.28;1.00;;;9.30;99.80;;;;;;5014064;28;20030;-76
2021/10/14 03:28:44;;;;;;;1.35;1.25;;;9.30;99.80;;;;;;5013608;28;20049;-76
2021/10/14 03:31:10;;;;;;;1.48;1.33;;;9.30;99.90;;;;;;4996188;28;20410;-76
2021/10/14 03:33:37;;;;;;;1.80;1.23;;;9.30;99.70;;;;;;5011151;28;20038;-76
2021/10/14 03:36:04;;;;;;;1.30;1.05;;;9.30;99.60;;;;;;4995153;28;20033;-76
2021/10/14 03:38:30;;;;;;;0.93;0.93;;;9.30;99.40;;;;;;4994984;28;20041;-76
2021/10/14 03:40:56;;;;;;;1.33;1.00;;;9.30;99.20;;;;;;4986005;28;20035;-76
2021/10/14 03:43:21;;;;;;;0.93;0.90;;;9.30;99.30;;;;;;4975571;28;20342;-76
2021/10/14 03:45:47;;;;;;;2.15;1.08;;;9.30;99.30;;;;;;4975440;28;20042;-76
2021/10/14 03:48:13;;;;;;;0.95;0.90;;;9.30;99.20;;;;;;4958024;28;20034;-76
2021/10/14 03:50:38;;;;;;;1.27;1.17;;;9.30;99.10;;;;;;4975431;28;20038;-76
2021/10/14 03:53:04;;;;;;;1.20;1.10;;;9.30;99.30;;;;;;4975386;28;20113;-76
2021/10/14 03:55:30;;;;;;;1.00;1.00;;;9.20;99.60;;;;;;4975396;28;20039;-76
2021/10/14 03:57:55;;;;;;;1.25;1.15;;;9.20;99.70;;;;;;4973707;28;20038;-76
2021/10/14 04:00:22;;;;;;;0.98;0.95;;;9.20;99.70;;;;;;4957895;28;20037;-76
2021/10/14 04:02:47;;;;;;;1.20;1.10;;;9.20;99.80;;;;;;4957368;28;20031;-77
2021/10/14 04:05:13;;;;;;;1.00;1.00;;;9.20;99.80;;;;;;4988643;28;20027;-77
2021/10/14 04:07:39;;;;;;;1.65;1.42;;;9.20;99.90;;;;;;4990019;28;20109;-77
2021/10/14 04:10:06;;;;;;;0.93;0.93;;;9.20;99.80;;;;;;4989970;28;20041;-77
2021/10/14 04:12:32;;;;;;;2.25;0.95;;;9.20;99.90;;;;;;4991257;28;20121;-77
2021/10/14 04:14:58;;;;;;;1.40;1.30;;;9.20;99.90;;;;;;4991229;28;20109;-77
2021/10/14 04:17:23;;;;;;;1.00;1.00;;;9.20;99.90;;;;;;4990811;28;20113;-77
2021/10/14 04:19:49;;;;;;;1.75;1.25;;;9.20;99.80;;;;;;4990632;28;20031;-77
2021/10/14 04:22:15;;;;;;;1.02;1.02;;;9.20;99.90;;;;;;4992875;28;20022;-77
2021/10/14 04:24:41;;;;;;;1.52;1.30;;;9.10;99.90;;;;;;4992802;28;20117;-77
2021/10/14 04:27:07;;;;;;;0.98;0.95;;;9.10;99.90;;;;;;4992587;28;20050;-77
2021/10/14 04:29:33;;;;;;;1.08;1.08;;;9.00;99.90;;;;;;4992813;28;20061;-77
2021/10/14 04:31:59;;;;;;;1.50;1.40;;;8.90;99.90;;;;;;4992705;28;20157;-77
2021/10/14 04:34:25;;;;;;;2.03;1.30;;;8.90;99.90;;;;;;4992609;28;20033;-77
2021/10/14 04:36:51;;;;;;;1.83;1.52;;;8.90;99.90;;;;;;4992462;28;20030;-77
2021/10/14 04:39:17;;;;;;;0.98;0.98;;;8.90;99.90;;;;;;4992628;28;20069;-77
2021/10/14 04:41:44;;;;;;;1.35;1.20;;;8.90;99.90;;;;;;4992280;28;20033;-77
2021/10/14 04:44:10;;;;;;;1.42;1.33;;;9.00;99.90;;;;;;4992508;28;20028;-77
2021/10/14 04:46:36;;;;;;;4.15;1.08;;;9.00;99.90;;;;;;4974898;28;20502;-77
2021/10/14 04:49:03;;;;;;;1.42;1.33;;;9.00;99.90;;;;;;4993030;28;20106;-77
2021/10/14 04:51:29;;;;;;;1.15;1.15;;;8.90;99.90;;;;;;4993643;28;20395;-77
2021/10/14 04:53:54;;;;;;;1.75;1.65;;;8.90;99.90;;;;;;4974914;28;20031;-77
2021/10/14 04:56:20;;;;;;;1.75;1.00;;;8.90;99.90;;;;;;4974615;28;20038;-77
2021/10/14 04:58:46;;;;;;;3.40;1.20;;;9.00;99.90;;;;;;4992243;28;20026;-78
2021/10/14 05:01:12;;;;;;;1.40;1.25;;;9.00;99.90;;;;;;4992270;28;20153;-77
2021/10/14 05:03:37;;;;;;;3.45;1.30;;;8.90;99.90;;;;;;4992100;28;20022;-77
2021/10/14 05:06:03;;;;;;;1.50;1.40;;;8.90;99.90;;;;;;4992414;28;20525;-77
2021/10/14 05:08:29;;;;;;;1.40;1.35;;;8.90;99.90;;;;;;4974697;28;20029;-77
2021/10/14 05:10:54;;;;;;;1.80;1.42;;;8.90;99.90;;;;;;4974322;28;20022;-76
2021/10/14 05:13:20;;;;;;;1.20;1.17;;;8.90;99.90;;;;;;4972852;28;20022;-76
2021/10/14 05:15:46;;;;;;;1.25;1.15;;;8.90;99.90;;;;;;4990532;28;20026;-76
2021/10/14 05:18:12;;;;;;;1.58;1.48;;;9.00;99.90;;;;;;4991001;28;20027;-76
2021/10/14 05:20:37;;;;;;;1.45;1.35;;;8.90;99.90;;;;;;4991331;28;20029;-76
2021/10/14 05:23:03;;;;;;;1.50;1.25;;;8.90;99.90;;;;;;4974075;28;20041;-76
2021/10/14 05:25:29;;;;;;;3.38;1.60;;;8.90;99.90;;;;;;4991111;28;20081;-76
2021/10/14 05:27:55;;;;;;;1.73;1.40;;;8.90;99.90;;;;;;4973983;28;20026;-76
2021/10/14 05:30:20;;;;;;;2.03;1.83;;;8.90;99.90;;;;;;4973664;28;20081;-76
2021/10/14 05:32:46;;;;;;;2.13;1.92;;;8.90;99.90;;;;;;4989746;28;20014;-75
2021/10/14 05:35:12;;;;;;;2.40;2.20;;;8.90;99.90;;;;;;4988388;28;20436;-76
2021/10/14 05:37:38;;;;;;;2.55;2.10;;;8.90;99.90;;;;;;4990114;28;20435;-76
2021/10/14 05:40:05;;;;;;;1.75;1.65;;;8.80;99.90;;;;;;4990881;28;20030;-76
2021/10/14 05:42:31;;;;;;;1.60;1.50;;;8.80;99.90;;;;;;4989977;28;20054;-76
2021/10/14 05:44:57;;;;;;;2.05;1.30;;;8.80;99.90;;;;;;4989837;28;20435;-76
2021/10/14 05:47:23;;;;;;;1.10;1.00;;;8.90;99.90;;;;;;4991273;28;20105;-76
2021/10/14 05:49:49;;;;;;;3.83;1.35;;;8.90;99.90;;;;;;4989990;28;20037;-76
2021/10/14 05:52:15;;;;;;;3.58;1.35;;;8.90;99.10;;;;;;4991708;28;20157;-76
2021/10/14 05:54:40;;;;;;;1.60;1.50;;;8.90;99.10;;;;;;4994939;28;20109;-76
2021/10/14 05:57:06;;;;;;;1.33;1.30;;;8.90;99.30;;;;;;4995246;28;20022;-76
2021/10/14 05:59:32;;;;;;;1.40;1.30;;;8.80;99.30;;;;;;4994944;28;20041;-76
2021/10/14 06:01:58;;;;;;;1.10;1.00;;;8.80;99.20;;;;;;4995460;28;20054;-76
2021/10/14 06:04:24;;;;;;;1.80;1.20;;;8.80;99.20;;;;;;4988645;28;20524;-76
2021/10/14 06:06:50;;;;;;;1.00;1.00;;;8.80;99.20;;;;;;4996779;28;20105;-76
2021/10/14 06:09:15;;;;;;;0.90;0.90;;;8.80;99.30;;;;;;4979482;28;20030;-76
2021/10/14 06:11:41;;;;;;;2.70;1.50;;;8.80;99.40;;;;;;4996775;28;20108;-76
2021/10/14 06:14:07;;;;;;;2.67;1.15;;;8.80;99.40;;;;;;4996319;28;20101;-76
2021/10/14 06:16:33;;;;;;;1.58;1.38;;;8.80;99.50;;;;;;4995994;28;20113;-76
2021/10/14 06:18:58;;;;;;;1.40;1.27;;;9.00;99.20;;;;;;4996136;28;20026;-76
2021/10/14 06:21:24;;;;;;;1.40;1.30;;;9.10;98.80;;;;;;4996298;28;20033;-76
2021/10/14 06:23:50;;;;;;;2.38;1.40;;;9.20;98.50;;;;;;4978636;28;20539;-76
2021/10/14 06:26:15;;;;;;;4.53;1.50;;;9.30;98.50;;;;;;4978493;28;20520;-76
2021/10/14 06:28:41;;;;;;;1.13;1.13;;;9.40;98.50;;;;;;4978297;28;20057;-76
2021/10/14 06:31:07;;;;;;;1.35;1.23;;;9.50;98.40;;;;;;4978366;28;20141;-76
2021/10/14 06:33:33;;;;;;;1.40;1.30;;;9.40;98.30;;;;;;4978684;28;20081;-76
2021/10/14 06:35:58;;;;;;;1.63;1.20;;;9.50;98.40;;;;;;4996325;28;20030;-75
2021/10/14 06:38:24;;;;;;;1.70;1.60;;;9.60;98.40;;;;;;4994602;28;20097;-76
2021/10/14 06:40:50;;;;;;;1.25;1.20;;;9.60;98.40;;;;;;4996172;28;20036;-75
2021/10/14 06:43:16;;;;;;;2.47;1.45;;;9.60;98.40;;;;;;4996277;28;20472;-76
2021/10/14 06:45:42;;;;;;;1.33;1.23;;;9.60;98.50;;;;;;4994976;28;20035;-76
2021/10/14 06:48:09;;;;;;;2.38;1.25;;;9.60;98.80;;;;;;5008774;28;20061;-76
2021/10/14 06:50:35;;;;;;;2.80;1.55;;;9.60;99.10;;;;;;5015681;28;20492;-76
2021/10/14 06:53:01;;;;;;;3.78;1.60;;;9.60;99.30;;;;;;5015759;28;20057;-76
2021/10/14 06:55:27;;;;;;;1.73;1.63;;;9.70;99.40;;;;;;4998122;28;20026;-76
2021/10/14 06:57:53;;;;;;;3.17;1.50;;;9.80;99.30;;;;;;5015823;28;20033;-76
2021/10/14 07:00:22;;;;;;;2.28;1.92;;;9.90;99.60;;;;;;5015835;28;20041;-76
2021/10/14 07:02:48;;;;;;;3.15;1.75;;;10.00;99.70;;;;;;5015607;28;20021;-76
2021/10/14 07:05:14;;;;;;;2.80;1.48;;;10.00;99.60;;;;;;4999548;28;20046;-77
2021/10/14 07:07:39;;;;;;;1.45;1.27;;;10.00;99.90;;;;;;4996606;28;20061;-78
2021/10/14 07:10:08;;;;;;;1.90;1.80;;;10.00;99.90;;;;;;5014688;28;20072;-77
2021/10/14 07:12:34;;;;;;;4.80;1.40;;;10.10;99.90;;;;;;5014768;28;20029;-77
2021/10/14 07:15:00;;;;;;;1.98;1.52;;;10.10;99.90;;;;;;5015087;28;20029;-77
2021/10/14 07:17:25;;;;;;;1.88;1.58;;;10.20;99.90;;;;;;5014607;28;20383;-77
2021/10/14 07:19:52;;;;;;;1.50;1.40;;;10.30;99.90;;;;;;4997304;28;20022;-78
2021/10/14 07:22:17;;;;;;;6.30;1.88;;;10.40;99.90;;;;;;5014761;28;20026;-78
2021/10/14 07:24:43;;;;;;;4.03;1.52;;;10.40;99.90;;;;;;5014505;28;20053;-77
2021/10/14 07:27:09;;;;;;;2.17;1.60;;;10.40;99.90;;;;;;5013960;28;20061;-77
2021/10/14 07:29:35;;;;;;;3.22;1.95;;;10.50;99.90;;;;;;5009717;28;20015;-77
2021/10/14 07:32:01;;;;;;;1.83;1.42;;;10.50;99.90;;;;;;4993798;28;20026;-77
2021/10/14 07:34:27;;;;;;;1.70;1.60;;;10.60;99.90;;;;;;4994533;28;20029;-77
2021/10/14 07:36:53;;;;;;;1.67;1.50;;;10.70;99.90;;;;;;4992598;28;20068;-77
2021/10/14 07:39:20;;;;;;;2.28;1.50;;;10.80;99.90;;;;;;4994488;28;20047;-77
2021/10/14 07:41:46;;;;;;;2.33;1.55;;;10.90;99.90;;;;;;4994879;28;20037;-77
2021/10/14 07:44:13;;;;;;;1.75;1.65;;;11.00;99.90;;;;;;4995056;28;20114;-77
2021/10/14 07:46:40;;;;;;;1.65;1.30;;;11.10;99.90;;;;;;4994733;28;20113;-77
2021/10/14 07:49:06;;;;;;;1.50;1.40;;;11.20;99.90;;;;;;4994971;28;20034;-77
2021/10/14 07:51:32;;;;;;;2.85;1.77;;;11.20;99.90;;;;;;4994591;28;20488;-76
2021/10/14 07:53:58;;;;;;;2.17;1.00;;;11.30;99.90;;;;;;4982332;28;20060;-77
2021/10/14 07:56:24;;;;;;;1.45;1.35;;;11.30;99.90;;;;;;4987468;28;20472;-77
2021/10/14 07:58:50;;;;;;;1.60;1.48;;;11.40;99.90;;;;;;4976442;28;20508;-77
2021/10/14 08:01:16;;;;;;;3.00;1.60;;;11.40;99.90;;;;;;4986219;28;20477;-77
2021/10/14 08:03:41;;;;;;;2.33;1.30;;;11.40;99.90;;;;;;4992955;28;20037;-78
2021/10/14 08:06:07;;;;;;;1.90;1.27;;;11.50;99.90;;;;;;4993310;28;20718;-78
2021/10/14 08:08:33;;;;;;;1.67;1.17;;;11.50;99.90;;;;;;4975825;28;20034;-78
2021/10/14 08:10:59;;;;;;;5.47;1.35;;;11.60;99.90;;;;;;4993171;28;20026;-78
2021/10/14 08:13:25;;;;;;;3.50;1.40;;;11.70;99.90;;;;;;4975625;28;20026;-78
2021/10/14 08:15:52;;;;;;;2.20;1.20;;;11.70;99.90;;;;;;4975325;28;20027;-78
2021/10/14 08:18:20;;;;;;;1.85;1.30;;;11.80;99.90;;;;;;4975644;28;20428;-78
2021/10/14 08:20:49;;;;;;;3.25;1.80;;;11.80;99.90;;;;;;4976083;28;20033;-78
2021/10/14 08:23:17;;;;;;;2.72;1.55;;;11.90;99.90;;;;;;4993152;28;20026;-78
2021/10/14 08:25:43;;;;;;;4.20;1.75;;;12.00;99.90;;;;;;4975753;28;20023;-78
2021/10/14 08:28:09;;;;;;;3.08;2.38;;;12.00;99.90;;;;;;4992985;28;20027;-78
2021/10/14 08:30:35;;;;;;;2.50;2.30;;;12.00;99.90;;;;;;4975622;28;20105;-78
2021/10/14 08:33:01;;;;;;;1.90;1.75;;;12.00;99.90;;;;;;4993156;28;20049;-78
2021/10/14 08:35:27;;;;;;;4.18;1.92;;;12.00;99.90;;;;;;4976225;28;20031;-77
2021/10/14 08:37:53;;;;;;;2.70;1.80;;;12.10;99.90;;;;;;4994015;28;20026;-78
2021/10/14 08:40:20;;;;;;;7.30;2.80;;;12.10;99.90;;;;;;4992485;28;20030;-78
2021/10/14 08:42:46;;;;;;;13.23;4.78;;;12.10;99.90;;;;;;4992824;28;20037;-78
2021/10/14 08:45:12;;;;;;;7.75;4.18;;;12.20;99.90;;;;;;4992880;28;20403;-78
2021/10/14 08:47:40;;;;;;;9.25;4.30;;;12.20;99.90;;;;;;4992794;28;20062;-78
2021/10/14 08:50:08;;;;;;;7.63;3.40;;;12.30;99.90;;;;;;4987297;28;20084;-79
2021/10/14 08:52:34;;;;;;;8.73;3.38;;;12.40;99.90;;;;;;4973319;28;20101;-76
2021/10/14 08:55:00;;;;;;;7.22;3.17;;;12.30;99.90;;;;;;4990614;28;20105;-76
2021/10/14 08:57:29;;;;;;;6.47;3.50;;;12.40;99.90;;;;;;4990003;28;20030;-78
2021/10/14 08:59:55;;;;;;;4.35;3.28;;;12.40;99.90;;;;;;4990474;28;20037;-78
2021/10/14 09:02:21;;;;;;;4.30;2.65;;;12.50;99.90;;;;;;4970266;28;20026;-78
2021/10/14 09:11:05;;;;;;;3.03;2.00;;;12.60;99.90;;;;;;4993823;28;20053;-76
2021/10/14 09:13:30;;;;;;;2.85;2.20;;;12.60;99.90;;;;;;5005890;28;20030;-77
2021/10/14 09:16:20;;;;;;;8.70;2.38;;;12.70;99.90;;;;;;5006973;28;20082;-77
2021/10/14 09:18:48;;;;;;;4.78;2.33;;;12.80;99.90;;;;;;5005684;28;20646;-76
2021/10/14 09:21:29;;;;;;;5.32;2.30;;;12.80;99.90;;;;;;4988829;28;20494;-77
2021/10/14 09:23:58;;;;;;;3.08;2.78;;;12.80;99.90;;;;;;5006887;28;20295;-76
2021/10/14 09:26:29;;;;;;;3.35;2.55;;;12.90;99.90;;;;;;5006452;28;20109;-77
2021/10/14 09:29:06;;;;;;;7.57;2.35;;;12.90;99.90;;;;;;5008433;28;20037;-75
2021/10/14 09:31:49;;;;;;;2.95;2.25;;;12.80;99.90;;;;;;5011542;28;20061;-76
2021/10/14 09:34:33;;;;;;;2.55;2.08;;;12.80;99.90;;;;;;5009742;28;20034;-76
2021/10/14 09:37:01;;;;;;;2.63;2.20;;;12.90;99.90;;;;;;4990871;28;20420;-76
2021/10/14 09:39:28;;;;;;;2.63;2.38;;;12.90;99.90;;;;;;4991975;28;20456;-76
2021/10/14 09:41:55;;;;;;;4.22;2.38;;;13.00;99.90;;;;;;5011359;28;20428;-77
2021/10/14 09:44:21;;;;;;;4.43;2.65;;;13.10;99.90;;;;;;5011612;28;20018;-77
2021/10/14 09:46:55;;;;;;;2.67;2.47;;;13.10;99.90;;;;;;4994290;28;20419;-76
2021/10/14 09:49:21;;;;;;;6.45;2.35;;;13.10;99.90;;;;;;4993284;28;20037;-77
2021/10/14 09:51:47;;;;;;;5.20;2.25;;;13.10;99.90;;;;;;5011310;28;20031;-77
2021/10/14 09:54:13;;;;;;;2.55;2.22;;;13.10;99.90;;;;;;5010688;28;20978;-77
2021/10/14 09:56:39;;;;;;;2.38;2.17;;;13.20;99.90;;;;;;4992162;28;20026;-77
2021/10/14 09:59:05;;;;;;;3.78;2.92;;;13.20;99.90;;;;;;5010316;28;20033;-77
2021/10/14 10:01:40;;;;;;;4.03;2.95;;;13.30;99.90;;;;;;5010411;28;20014;-77
2021/10/14 10:04:06;;;;;;;5.35;2.95;;;13.30;99.90;;;;;;4990261;28;20080;-77
2021/10/14 10:06:34;;;;;;;7.30;2.83;;;13.30;99.90;;;;;;4991679;28;20422;-77
2021/10/14 10:09:06;;;;;;;6.35;2.53;;;13.30;99.90;;;;;;4992078;28;20018;-77
2021/10/14 10:11:32;;;;;;;;;;;13.30;99.90;;;;;;5010003;28;20083;-76
2021/10/14 10:14:03;;;;;;;3.78;2.10;;;13.40;99.90;;;;;;5006555;28;19918;-76
2021/10/14 10:16:28;;;;;;;2.97;2.47;;;13.40;99.90;;;;;;5009751;28;20018;-76
2021/10/14 10:18:56;;;;;;;3.55;2.10;;;13.60;99.90;;;;;;5007687;28;20025;-76
2021/10/14 10:21:30;;;;;;;3.20;2.40;;;13.80;99.90;;;;;;5009027;28;20064;-76
2021/10/14 10:23:59;;;;;;;2.95;1.90;;;13.80;99.90;;;;;;5009270;28;20018;-77
2021/10/14 10:26:37;;;;;;;2.58;2.38;;;13.80;99.40;;;;;;4992184;28;20026;-77
2021/10/14 10:29:29;;;;;;;5.35;2.58;;;13.80;99.40;;;;;;5009568;28;20488;-76
2021/10/14 10:31:59;;;;;;;2.93;2.03;;;13.80;99.90;;;;;;5008002;28;20026;-76
2021/10/14 10:37:23;;;;;;;5.53;2.22;;;14.00;99.10;;;;;;5007362;28;20088;-76
2021/10/14 10:39:55;;;;;;;2.60;2.30;;;14.00;99.40;;;;;;5007865;28;20025;-74
2021/10/14 10:42:27;;;;;;;3.03;1.90;;;14.10;99.40;;;;;;4991152;28;20021;-77
2021/10/14 10:44:54;;;;;;;3.47;2.13;;;14.20;99.30;;;;;;5008951;28;20476;-77
2021/10/14 10:47:46;;;;;;;2.95;2.38;;;14.10;98.60;;;;;;5009320;28;20061;-76
2021/10/14 10:50:14;;;;;;;3.25;2.33;;;14.10;98.20;;;;;;5007871;28;20033;-76
2021/10/14 10:52:43;;;;;;;4.47;1.98;;;14.10;99.10;;;;;;4991999;28;20038;-75
2021/10/14 10:55:32;;;;;;;3.78;2.40;;;14.10;99.00;;;;;;5010195;28;20048;-75
2021/10/14 10:57:58;;;;;;;3.80;3.13;;;14.30;99.90;;;;;;4997992;28;20095;-76
2021/10/14 11:00:24;;;;;;;5.68;2.60;;;14.20;98.40;;;;;;4991967;28;20037;-77
2021/10/14 11:03:14;;;;;;;2.67;2.35;;;14.20;98.90;;;;;;5010775;28;20483;-76
2021/10/14 11:05:44;;;;;;;3.08;2.75;;;14.20;99.90;;;;;;5010866;28;20096;-76
2021/10/14 11:08:11;;;;;;;5.13;2.78;;;14.50;99.90;;;;;;4993451;28;20026;-76
2021/10/14 11:10:37;;;;;;;3.97;3.17;;;14.50;99.30;;;;;;5011005;28;20699;-76
2021/10/14 11:13:03;;;;;;;5.32;3.28;;;14.50;98.30;;;;;;4993561;28;20026;-76
2021/10/14 11:15:30;;;;;;;3.22;2.92;;;14.60;98.60;;;;;;4993828;28;20026;-76
2021/10/14 11:18:07;;;;;;;3.72;3.13;;;14.60;98.80;;;;;;5012215;28;20026;-74
2021/10/14 11:20:34;;;;;;;6.18;3.60;;;14.70;98.40;;;;;;5012743;28;20455;-74
2021/10/14 11:23:05;;;;;;;6.88;2.83;;;14.90;98.20;;;;;;5014528;28;20096;-76
2021/10/14 11:25:32;;;;;;;5.40;2.97;;;14.90;98.10;;;;;;5014673;28;20125;-76
2021/10/14 11:28:05;;;;;;;3.40;3.20;;;14.90;97.30;;;;;;5013130;28;20455;-74
2021/10/14 11:30:48;;;;;;;6.68;3.33;;;14.90;96.80;;;;;;5012794;28;20075;-74
2021/10/14 11:33:35;;;;;;;3.22;2.90;;;14.90;97.40;;;;;;5013125;28;20034;-76
2021/10/14 11:36:04;;;;;;;5.93;3.33;;;14.90;97.40;;;;;;5012994;28;20053;-76
2021/10/14 11:38:32;;;;;;;6.22;2.72;;;14.90;97.60;;;;;;5013650;28;20029;-76
2021/10/14 11:40:59;;;;;;;4.47;2.88;;;14.90;98.00;;;;;;5012544;28;20472;-76
2021/10/14 11:43:30;;;;;;;3.42;2.47;;;15.00;96.60;;;;;;5014068;28;20033;-77
2021/10/14 11:45:57;;;;;;;3.97;2.73;;;15.00;97.40;;;;;;5014050;28;20108;-76
2021/10/14 11:48:31;;;;;;;5.57;2.95;;;15.10;96.70;;;;;;4996107;28;20061;-76
2021/10/14 11:51:06;;;;;;;3.47;2.83;;;15.10;95.90;;;;;;5012598;28;20026;-76
2021/10/14 11:53:32;;;;;;;4.90;3.72;;;15.10;95.40;;;;;;5012943;28;20033;-76
2021/10/14 11:56:05;;;;;;;4.47;3.08;;;15.00;93.70;;;;;;5017828;28;20487;-76
2021/10/14 11:58:32;;;;;;;6.25;2.92;;;14.90;93.70;;;;;;5009692;28;20018;-77
2021/10/14 12:01:03;;;;;;;7.05;3.05;;;14.90;94.20;;;;;;5027179;28;20078;-77
2021/10/14 12:03:33;;;;;;;4.38;2.60;;;14.80;94.00;;;;;;5027253;28;20022;-77
2021/10/14 12:05:59;;;;;;;7.03;3.53;;;14.70;94.50;;;;;;5009857;28;20029;-77
2021/10/14 12:08:25;;;;;;;5.43;3.40;;;14.80;94.10;;;;;;5001937;28;20044;-77
2021/10/14 12:10:58;;;;;;;6.82;2.88;;;14.90;94.80;;;;;;5008506;28;20050;-77
2021/10/14 12:13:29;;;;;;;4.38;2.97;;;15.00;94.90;;;;;;5008205;28;20028;-77
2021/10/14 12:16:09;;;;;;;3.65;2.90;;;15.00;93.70;;;;;;5009075;28;20022;-77
2021/10/14 12:18:36;;;;;;;5.00;2.78;;;15.10;95.30;;;;;;5011664;28;20030;-77
2021/10/14 12:21:03;;;;;;;7.95;3.10;;;15.10;95.30;;;;;;5011621;28;20021;-77
2021/10/14 12:23:35;;;;;;;3.35;3.05;;;15.10;95.10;;;;;;5011506;28;20477;-77
2021/10/14 12:26:14;;;;;;;4.72;3.03;;;15.20;93.80;;;;;;5008287;28;20427;-77
2021/10/14 12:28:43;;;;;;;3.60;3.28;;;15.10;93.20;;;;;;5008623;28;20030;-74
2021/10/14 12:31:13;;;;;;;7.32;2.80;;;15.10;94.20;;;;;;5007863;28;20037;-77
2021/10/14 12:33:40;;;;;;;3.55;2.70;;;15.20;94.50;;;;;;5006148;28;20435;-77
2021/10/14 12:36:06;;;;;;;8.93;3.60;;;15.30;93.80;;;;;;5005491;28;20116;-77
2021/10/14 12:38:37;;;;;;;4.50;3.75;;;15.30;93.10;;;;;;5009533;28;20034;-77
2021/10/14 12:41:11;;;;;;;2.95;2.63;;;15.30;92.60;;;;;;5011123;28;20250;-77
2021/10/14 12:43:43;;;;;;;6.43;3.25;;;15.40;92.90;;;;;;4992846;28;20022;-78
2021/10/14 12:46:21;;;;;;;4.65;3.13;;;15.40;92.50;;;;;;4993775;28;20053;-77
2021/10/14 12:48:53;;;;;;;4.57;3.08;;;15.30;91.90;;;;;;5010516;28;20037;-78
2021/10/14 12:51:19;;;;;;;3.53;3.17;;;15.40;92.70;;;;;;5010507;28;20476;-77
2021/10/14 12:53:48;;;;;;;3.75;3.33;;;15.40;93.10;;;;;;5010293;28;20029;-78
2021/10/14 12:56:16;;;;;;;6.85;2.80;;;15.50;92.40;;;;;;5011407;28;20030;-77
2021/10/14 12:58:44;;;;;;;3.40;2.55;;;15.50;92.30;;;;;;5011228;28;20475;-78
2021/10/14 13:01:18;;;;;;;5.65;3.00;;;15.50;92.10;;;;;;5011403;28;20025;-78